Time;durP1;ratioP1;P1;durP2;ratioP2;P2;SDS_P1;SDS_P2;PMS_P1;PMS_P2;Temp;Humidity;BMP_temperature;BMP_pressure;BME280_temperature;BME280_humidity;BME280_pressure;Samples;Min_cycle;Max_cycle;Signal;HPM_P1;HPM_P2
2022/02/10 00:16:15;;;;;;;8.00;3.42;;;;;;;1.97;100.00;101367.49;1722873;81;21029;-87
2022/02/10 00:24:10;;;;;;;13.60;4.08;;;;;;;1.94;100.00;101346.59;1728054;82;21088;-87
2022/02/10 00:34:32;;;;;;;9.53;4.00;;;;;;;1.86;100.00;101348.05;1727569;82;21522;-87
2022/02/10 00:39:53;;;;;;;8.80;3.60;;;;;;;1.73;100.00;101347.33;1727894;82;21159;-87
2022/02/10 00:42:02;;;;;;;10.65;4.10;;;;;;;1.69;100.00;101352.70;1723896;82;21101;-87
2022/02/10 00:44:28;;;;;;;13.50;3.85;;;;;;;1.62;100.00;101357.08;1728048;82;21123;-87
2022/02/10 00:46:54;;;;;;;13.13;4.00;;;;;;;1.51;100.00;101363.17;1727474;82;21223;-87
2022/02/10 00:49:21;;;;;;;9.78;4.15;;;;;;;1.46;100.00;101362.06;1727828;82;21073;-87
2022/02/10 00:51:49;;;;;;;13.90;4.62;;;;;;;1.39;100.00;101365.13;1740767;81;20974;-87
2022/02/10 00:54:19;;;;;;;10.88;4.75;;;;;;;1.37;100.00;101359.98;1753480;81;21622;-87
2022/02/10 00:56:44;;;;;;;13.62;4.95;;;;;;;1.36;100.00;101351.20;1753081;81;21062;-87
2022/02/10 00:59:23;;;;;;;11.95;5.12;;;;;;;1.35;100.00;101347.38;1753483;81;21130;-87
2022/02/10 01:10:25;;;;;;;11.73;3.87;;;;;;;1.22;100.00;101359.13;1753158;81;21203;-88
2022/02/10 01:30:59;;;;;;;10.65;3.47;;;;;;;1.21;100.00;101351.67;1656714;86;21136;-87
2022/02/10 01:33:26;;;;;;;9.70;3.25;;;;;;;1.20;100.00;101360.62;1656749;85;21060;-87
2022/02/10 01:35:52;;;;;;;11.35;3.85;;;;;;;1.16;100.00;101358.02;1634716;86;21037;-87
2022/02/10 01:38:18;;;;;;;11.60;3.90;;;;;;;1.10;100.00;101355.57;1657036;86;21244;-87
2022/02/10 02:05:37;;;;;;;14.18;4.28;;;;;;;0.32;100.00;101348.62;1774124;80;21104;-88
2022/02/10 02:07:59;;;;;;;12.70;4.28;;;;;;;0.26;100.00;101339.22;1769906;80;21011;-88
2022/02/10 02:10:25;;;;;;;14.75;5.15;;;;;;;0.21;100.00;101342.41;1774296;80;21472;-88
2022/02/10 02:12:51;;;;;;;17.35;4.90;;;;;;;0.15;100.00;101343.92;1774417;80;21480;-88
2022/02/10 02:15:17;;;;;;;13.68;4.62;;;;;;;0.09;100.00;101340.64;1774452;80;21633;-88
2022/02/10 02:17:44;;;;;;;13.83;5.45;;;;;;;0.06;100.00;101346.75;1774387;80;21594;-88
2022/02/10 02:20:11;;;;;;;19.57;6.10;;;;;;;0.03;100.00;101345.77;1774597;80;21501;-87
2022/02/10 02:22:38;;;;;;;20.23;5.72;;;;;;;-0.03;100.00;101332.23;1774234;80;21579;-88
2022/02/10 02:25:06;;;;;;;19.52;5.80;;;;;;;-0.05;100.00;101335.55;1774533;80;20987;-89
2022/02/10 02:27:49;;;;;;;22.20;6.40;;;;;;;-0.09;100.00;101342.20;1774166;80;21046;-89
2022/02/10 02:30:31;;;;;;;15.95;5.90;;;;;;;-0.13;100.00;101346.67;1711636;83;22006;-89
2022/02/10 02:36:24;;;;;;;18.75;5.85;;;;;;;-0.23;100.00;101345.55;1716766;83;21512;-89
2022/02/10 02:38:50;;;;;;;;;;;;;;;-0.29;100.00;101337.79;1712843;83;21149;-89
2022/02/10 03:11:00;;;;;;;26.40;9.28;;;;;;;-0.48;100.00;101370.74;1636962;87;20979;-90
2022/02/10 03:13:16;;;;;;;28.23;9.05;;;;;;;-0.46;100.00;101363.97;1636734;87;21566;-90
2022/02/10 03:16:01;;;;;;;24.07;8.45;;;;;;;-0.41;100.00;101368.75;1637180;87;21155;-90
2022/02/10 03:20:53;;;;;;;27.62;9.30;;;;;;;-0.33;100.00;101372.70;1585799;89;21141;-89
2022/02/10 04:14:41;;;;;;;24.95;8.73;;;;;;;0.07;100.00;101380.22;1661311;86;21102;-89
2022/02/10 04:17:26;;;;;;;26.27;8.15;;;;;;;0.08;100.00;101372.09;1657971;86;21340;-90
2022/02/10 04:22:36;;;;;;;30.10;8.58;;;;;;;0.09;100.00;101371.58;1661056;86;21078;-89
2022/02/10 04:57:18;;;;;;;31.23;8.93;;;;;;;0.06;100.00;101350.25;1669170;86;21026;-91
2022/02/10 05:18:31;;;;;;;97.53;24.15;;;;;;;0.70;100.00;101354.03;1687944;85;21669;-90
2022/02/10 05:23:29;;;;;;;118.28;29.95;;;;;;;0.98;100.00;101354.85;1687461;85;21605;-90
2022/02/10 05:33:54;;;;;;;89.37;24.82;;;;;;;1.46;100.00;101348.78;1530644;92;21102;-89
2022/02/10 05:36:21;;;;;;;98.20;26.57;;;;;;;1.51;100.00;101355.71;1551108;89;21515;-90
2022/02/10 05:38:52;;;;;;;105.47;26.57;;;;;;;1.56;100.00;101352.02;1586779;89;21600;-90
2022/02/10 05:41:51;;;;;;;100.95;29.50;;;;;;;1.62;100.00;101343.80;1583757;89;21057;-90
2022/02/10 05:46:45;;;;;;;109.25;31.12;;;;;;;1.79;100.00;101348.78;1537357;91;21206;-90
2022/02/10 05:59:40;;;;;;;119.33;31.73;;;;;;;2.25;100.00;101350.38;1571955;88;21109;-89
2022/02/10 06:53:42;;;;;;;38.60;11.97;;;;;;;4.43;100.00;101326.39;1785825;79;21515;-87
2022/02/10 07:43:16;;;;;;;26.23;7.28;;;;;;;4.89;100.00;101305.64;1684697;83;21124;-86
2022/02/10 07:47:48;;;;;;;15.03;5.35;;;;;;;5.51;100.00;101282.16;1677654;85;21070;-85
2022/02/10 07:50:14;;;;;;;15.68;5.10;;;;;;;5.57;100.00;101281.84;1677585;85;21085;-86
2022/02/10 08:54:56;;;;;;;33.98;11.57;;;;;;;5.17;100.00;101253.84;1683343;84;21134;-86
2022/02/10 08:57:14;;;;;;;36.45;11.30;;;;;;;5.20;100.00;101248.08;1686549;83;21071;-87
2022/02/10 09:02:24;;;;;;;32.05;11.43;;;;;;;5.15;100.00;101248.72;1630061;86;21045;-85
2022/02/10 09:58:16;;;;;;;44.98;14.13;;;;;;;5.01;100.00;101205.69;1756146;81;21042;-87
2022/02/10 10:03:37;;;;;;;43.73;15.10;;;;;;;4.92;100.00;101194.40;1653142;86;21101;-88
2022/02/10 10:14:26;;;;;;;46.95;16.07;;;;;;;4.91;100.00;101194.10;1545283;90;21144;-88
2022/02/10 10:17:08;;;;;;;52.27;16.52;;;;;;;4.92;100.00;101187.72;1529834;93;21093;-89
2022/02/10 10:20:21;;;;;;;50.55;18.50;;;;;;;4.88;100.00;101191.84;1525559;93;21114;-89
2022/02/10 10:23:04;;;;;;;56.37;18.12;;;;;;;4.87;100.00;101188.03;1530380;93;21073;-88
2022/02/10 10:26:09;;;;;;;52.17;17.52;;;;;;;4.87;100.00;101182.17;1533458;92;21049;-86
2022/02/10 10:50:48;;;;;;;53.63;19.82;;;;;;;5.00;100.00;101196.86;1569716;88;21491;-89
2022/02/10 10:53:13;;;;;;;71.33;22.50;;;;;;;5.05;100.00;101202.89;1588766;88;21456;-89
2022/02/10 10:55:45;;;;;;;62.17;20.70;;;;;;;5.11;100.00;101202.58;1582463;89;21088;-87
2022/02/10 10:58:11;;;;;;;68.17;21.70;;;;;;;5.10;100.00;101203.10;1597677;87;21073;-88
2022/02/10 11:39:23;;;;;;;42.90;14.78;;;;;;;5.17;100.00;101217.25;1589252;88;21132;-86
2022/02/10 12:35:02;;;;;;;28.07;11.05;;;;;;;5.43;100.00;101243.63;1585587;89;21659;-87
2022/02/10 14:15:16;;;;;;;43.00;17.12;;;;;;;5.68;100.00;101332.00;1595185;87;21154;-86
2022/02/10 14:17:44;;;;;;;44.42;17.15;;;;;;;5.67;100.00;101330.34;1597063;87;21579;-87
2022/02/10 14:20:23;;;;;;;45.10;17.52;;;;;;;5.68;100.00;101329.33;1615554;87;21114;-87
2022/02/10 14:27:48;;;;;;;48.38;18.50;;;;;;;5.68;100.00;101327.99;1592352;90;21097;-87
2022/02/10 14:30:16;;;;;;;50.78;19.32;;;;;;;5.67;100.00;101324.47;1592152;90;21108;-87
2022/02/10 14:32:45;;;;;;;46.05;17.55;;;;;;;5.67;100.00;101326.33;1592565;90;21115;-87
2022/02/10 14:35:24;;;;;;;45.23;17.37;;;;;;;5.65;100.00;101329.23;1607125;87;21182;-87
2022/02/10 15:20:43;;;;;;;53.45;20.75;;;;;;;5.43;100.00;101358.55;1612253;89;21084;-87
2022/02/10 16:17:08;;;;;;;52.15;20.68;;;;;;;4.50;100.00;101394.45;1819703;78;21022;-87
2022/02/10 16:19:35;;;;;;;51.88;20.32;;;;;;;4.51;100.00;101388.94;1819753;78;20984;-89
2022/02/10 16:22:22;;;;;;;64.05;23.02;;;;;;;4.51;100.00;101398.80;1820303;78;20951;-89
2022/02/10 16:24:45;;;;;;;61.28;24.07;;;;;;;4.50;100.00;101397.98;1814809;78;20975;-89
2022/02/10 16:29:52;;;;;;;70.00;26.37;;;;;;;4.49;100.00;101407.50;1819856;78;20984;-88
2022/02/10 16:32:18;;;;;;;67.45;25.02;;;;;;;4.45;100.00;101409.75;1768753;78;21014;-89
2022/02/10 16:34:44;;;;;;;67.50;25.57;;;;;;;4.39;100.00;101413.22;1820197;78;20864;-89
2022/02/10 16:37:12;;;;;;;73.20;26.55;;;;;;;4.36;100.00;101417.62;1820327;78;20899;-89
2022/02/10 16:39:40;;;;;;;68.52;25.30;;;;;;;4.36;100.00;101423.47;1778669;78;21161;-89
2022/02/10 16:42:12;;;;;;;67.75;26.20;;;;;;;4.35;100.00;101415.95;1771321;78;20998;-90
2022/02/10 16:44:39;;;;;;;72.15;26.40;;;;;;;4.35;100.00;101414.61;1790090;78;20999;-89
2022/02/10 16:47:06;;;;;;;69.82;23.95;;;;;;;4.35;100.00;101417.28;1782563;79;21061;-90
2022/02/10 16:49:33;;;;;;;70.00;24.23;;;;;;;4.34;100.00;101422.32;1742380;80;21058;-90
2022/02/10 16:52:05;;;;;;;60.23;22.55;;;;;;;4.32;100.00;101415.02;1767915;80;21961;-91
2022/02/10 16:54:37;;;;;;;59.75;22.87;;;;;;;4.33;100.00;101420.69;1766319;78;21067;-91
2022/02/10 16:57:15;;;;;;;77.65;23.20;;;;;;;4.31;100.00;101414.71;1771717;80;20991;-90
2022/02/10 16:59:52;;;;;;;58.68;22.20;;;;;;;4.31;100.00;101419.53;1752722;80;21040;-91
2022/02/10 17:28:40;;;;;;;59.88;21.40;;;;;;;4.32;100.00;101418.53;1695536;82;20981;-89
2022/02/10 17:36:27;;;;;;;58.80;21.82;;;;;;;4.36;100.00;101404.80;1758746;80;21066;-89
2022/02/10 17:46:56;;;;;;;60.73;21.33;;;;;;;4.37;100.00;101407.25;1781762;80;21037;-89
2022/02/10 17:54:25;;;;;;;48.73;18.85;;;;;;;4.32;100.00;101412.34;1782283;80;20995;-89
2022/02/10 17:56:58;;;;;;;51.55;19.42;;;;;;;4.30;100.00;101418.41;1751075;80;21104;-88
2022/02/10 17:59:28;;;;;;;50.83;19.48;;;;;;;4.30;100.00;101425.08;1740582;81;21000;-89
2022/02/10 18:01:54;;;;;;;52.73;19.73;;;;;;;4.28;100.00;101418.59;1725667;82;21112;-89
2022/02/10 18:04:28;;;;;;;48.70;18.62;;;;;;;4.29;100.00;101412.74;1725755;80;21019;-89
2022/02/10 18:06:56;;;;;;;53.33;19.77;;;;;;;4.28;100.00;101411.11;1740441;82;21035;-89
2022/02/10 18:15:11;;;;;;;51.98;19.05;;;;;;;4.25;100.00;101412.84;1740444;81;21516;-88
2022/02/10 18:17:47;;;;;;;52.33;20.40;;;;;;;4.22;100.00;101417.23;1735359;82;21003;-88
2022/02/10 18:20:21;;;;;;;50.95;19.55;;;;;;;4.20;100.00;101412.59;1739389;81;21508;-88
2022/02/10 18:25:46;;;;;;;60.03;22.05;;;;;;;4.17;100.00;101410.33;1740346;82;21050;-89
2022/02/10 18:33:46;;;;;;;69.72;24.23;;;;;;;4.13;100.00;101393.90;1725863;82;21014;-88
2022/02/10 19:09:40;;;;;;;65.75;22.20;;;;;;;4.25;100.00;101414.98;1724457;81;21598;-88
2022/02/10 19:12:17;;;;;;;57.27;21.15;;;;;;;4.26;100.00;101417.96;1724590;82;21111;-88
2022/02/10 19:15:10;;;;;;;58.00;20.57;;;;;;;4.28;100.00;101423.11;1702669;83;21065;-89
2022/02/10 19:17:36;;;;;;;63.25;21.45;;;;;;;4.27;100.00;101424.97;1724418;82;21098;-89
2022/02/10 19:20:05;;;;;;;60.70;21.70;;;;;;;4.27;100.00;101420.96;1724407;83;20992;-88
2022/02/10 19:22:43;;;;;;;56.90;20.20;;;;;;;4.27;100.00;101427.63;1724225;83;21067;-90
2022/02/10 19:25:15;;;;;;;58.00;20.92;;;;;;;4.28;100.00;101419.93;1724635;83;21011;-89
2022/02/10 19:28:16;;;;;;;55.23;20.48;;;;;;;4.30;100.00;101421.90;1724827;81;20968;-89
2022/02/10 19:30:48;;;;;;;55.33;19.40;;;;;;;4.31;100.00;101418.72;1725349;80;21623;-89
2022/02/10 19:33:15;;;;;;;58.05;20.10;;;;;;;4.29;100.00;101414.08;1724302;83;21082;-89
2022/02/10 19:38:17;;;;;;;60.00;20.62;;;;;;;4.30;100.00;101416.56;1720455;83;21071;-89
2022/02/10 19:40:47;;;;;;;54.13;20.27;;;;;;;4.31;100.00;101424.87;1697014;83;21061;-89
2022/02/10 19:43:14;;;;;;;57.85;20.43;;;;;;;4.33;100.00;101421.50;1643968;86;21183;-89
2022/02/10 19:45:40;;;;;;;55.30;19.52;;;;;;;4.35;100.00;101420.47;1668668;86;21060;-89
2022/02/10 19:48:06;;;;;;;51.28;19.45;;;;;;;4.37;100.00;101422.44;1668698;86;21092;-89
2022/02/10 19:53:19;;;;;;;52.35;18.87;;;;;;;4.39;100.00;101410.55;1488184;94;21131;-90
2022/02/10 19:55:48;;;;;;;51.65;19.15;;;;;;;4.38;100.00;101414.73;1488104;95;21188;-89
2022/02/10 19:58:19;;;;;;;50.67;18.67;;;;;;;4.38;100.00;101416.89;1471132;97;21078;-90
2022/02/10 20:00:44;;;;;;;54.93;18.80;;;;;;;4.38;100.00;101414.73;1471337;97;21135;-90
2022/02/10 20:03:18;;;;;;;51.08;18.52;;;;;;;4.40;100.00;101420.19;1470711;97;21175;-94
2022/02/10 20:05:50;;;;;;;53.05;19.48;;;;;;;4.37;100.00;101407.25;1471256;97;21112;-95
2022/02/10 20:08:21;;;;;;;52.55;18.60;;;;;;;4.37;100.00;101406.42;1490521;95;21880;-93
2022/02/10 20:10:53;;;;;;;52.73;19.32;;;;;;;4.41;100.00;101411.67;1481066;96;21104;-93
2022/02/10 20:13:16;;;;;;;53.73;19.67;;;;;;;4.42;100.00;101409.33;1484057;96;21092;-94
2022/02/10 20:15:46;;;;;;;52.25;19.25;;;;;;;4.46;100.00;101402.56;1484426;96;21054;-94
2022/02/10 20:18:15;;;;;;;54.45;19.35;;;;;;;4.47;100.00;101391.70;1484353;96;21582;-91
2022/02/10 20:20:46;;;;;;;51.08;19.17;;;;;;;4.48;100.00;101396.01;1484556;96;22003;-93
2022/02/10 20:23:12;;;;;;;46.00;17.85;;;;;;;4.49;100.00;101386.15;1484177;96;21291;-94
2022/02/10 20:25:40;;;;;;;50.95;19.25;;;;;;;4.51;100.00;101388.12;1484579;96;21028;-94
2022/02/10 20:28:12;;;;;;;49.90;19.67;;;;;;;4.52;100.00;101393.75;1484356;96;21520;-93
2022/02/10 20:30:40;;;;;;;46.68;17.60;;;;;;;4.53;100.00;101392.75;1508917;93;21105;-93
2022/02/10 20:33:07;;;;;;;46.55;18.50;;;;;;;4.53;100.00;101396.75;1529521;93;21185;-93
2022/02/10 20:35:37;;;;;;;46.15;16.97;;;;;;;4.52;100.00;101399.91;1529610;93;21029;-94
2022/02/10 20:38:04;;;;;;;47.67;17.50;;;;;;;4.53;100.00;101403.43;1529179;92;21125;-92
2022/02/10 20:40:39;;;;;;;47.60;17.12;;;;;;;4.52;100.00;101410.59;1489088;95;21089;-93
2022/02/10 20:43:06;;;;;;;48.90;18.20;;;;;;;4.55;100.00;101408.03;1500730;95;21144;-92
2022/02/10 20:45:34;;;;;;;43.83;16.35;;;;;;;4.55;100.00;101410.19;1500598;94;21034;-92
2022/02/10 20:48:01;;;;;;;48.75;17.73;;;;;;;4.53;100.00;101403.43;1500663;95;21063;-93
2022/02/10 20:50:28;;;;;;;45.08;17.12;;;;;;;4.56;100.00;101400.36;1500971;95;21148;-93
2022/02/10 20:52:54;;;;;;;46.90;16.93;;;;;;;4.55;100.00;101404.84;1500947;95;21673;-93
2022/02/10 20:55:22;;;;;;;52.30;17.17;;;;;;;4.54;100.00;101397.88;1502672;93;21093;-92
2022/02/10 20:57:50;;;;;;;40.30;15.90;;;;;;;4.55;100.00;101398.70;1575707;90;21557;-88
2022/02/10 21:00:18;;;;;;;41.92;16.00;;;;;;;4.57;100.00;101409.19;1563165;91;21150;-89
2022/02/10 21:02:48;;;;;;;44.27;16.55;;;;;;;4.59;100.00;101413.79;1563314;91;21087;-87
2022/02/10 21:05:38;;;;;;;41.58;16.02;;;;;;;4.58;100.00;101414.31;1510764;95;21272;-90
2022/02/10 21:08:23;;;;;;;40.83;16.50;;;;;;;4.59;100.00;101411.97;1520304;92;21614;-89
2022/02/10 21:10:43;;;;;;;41.40;16.25;;;;;;;4.59;100.00;101409.30;1553287;92;21594;-89
2022/02/10 21:13:12;;;;;;;41.33;15.58;;;;;;;4.59;100.00;101415.97;1557601;91;20969;-89
2022/02/10 21:15:42;;;;;;;43.85;16.75;;;;;;;4.60;100.00;101414.13;1557659;91;21081;-89
2022/02/10 21:18:06;;;;;;;43.08;16.27;;;;;;;4.60;100.00;101419.46;1557893;91;21062;-89
2022/02/10 21:20:35;;;;;;;39.67;15.20;;;;;;;4.60;100.00;101414.94;1557784;91;21057;-89
2022/02/10 21:23:18;;;;;;;37.45;15.05;;;;;;;4.62;100.00;101418.24;1557512;91;21202;-89
2022/02/10 21:25:38;;;;;;;41.23;15.78;;;;;;;4.63;100.00;101428.41;1570742;90;21092;-88
2022/02/10 21:28:07;;;;;;;40.20;15.65;;;;;;;4.63;100.00;101423.06;1574366;89;21498;-88
2022/02/10 21:30:29;;;;;;;47.67;16.05;;;;;;;4.63;100.00;101422.55;1603949;88;21023;-89
2022/02/10 21:32:57;;;;;;;43.60;15.23;;;;;;;4.63;100.00;101429.73;1607023;88;21140;-88
2022/02/10 21:40:38;;;;;;;37.88;14.65;;;;;;;4.64;100.00;101419.36;1590567;89;21573;-89
2022/02/10 21:57:04;;;;;;;41.35;15.63;;;;;;;4.59;100.00;101408.45;1540658;92;21597;-88
2022/02/10 22:18:31;;;;;;;79.37;25.10;;;;;;;4.55;100.00;101386.68;1515978;93;21178;-89
2022/02/10 22:23:21;;;;;;;73.87;24.25;;;;;;;4.57;100.00;101391.31;1515101;92;21194;-89
2022/02/10 22:25:49;;;;;;;81.05;24.92;;;;;;;4.57;100.00;101389.98;1514887;93;21577;-89
2022/02/10 22:30:56;;;;;;;76.55;24.95;;;;;;;4.59;100.00;101388.43;1515116;92;21093;-89
2022/02/10 22:35:53;;;;;;;78.42;25.00;;;;;;;4.57;100.00;101399.33;1445472;94;21175;-89
2022/02/10 22:38:22;;;;;;;75.97;25.15;;;;;;;4.60;100.00;101399.44;1527430;93;21154;-89
2022/02/10 22:43:28;;;;;;;87.00;27.27;;;;;;;4.62;100.00;101404.05;1508040;95;21699;-88
2022/02/10 22:45:55;;;;;;;79.75;25.70;;;;;;;4.61;100.00;101409.08;1508229;95;21112;-88
2022/02/10 22:48:21;;;;;;;70.95;25.20;;;;;;;4.61;100.00;101409.08;1507963;95;21615;-88
2022/02/10 22:50:47;;;;;;;76.05;24.72;;;;;;;4.58;100.00;101409.48;1508168;95;20961;-89
2022/02/10 22:53:14;;;;;;;78.78;24.32;;;;;;;4.57;100.00;101419.86;1508154;95;21208;-88
2022/02/10 22:55:42;;;;;;;70.75;25.02;;;;;;;4.52;100.00;101414.59;1508204;95;21092;-91
2022/02/10 22:58:11;;;;;;;77.75;25.43;;;;;;;4.49;100.00;101420.33;1487376;95;21119;-89
2022/02/10 23:00:49;;;;;;;83.78;25.30;;;;;;;4.46;100.00;101418.06;1487681;95;22212;-89
2022/02/10 23:03:22;;;;;;;88.50;27.37;;;;;;;4.47;100.00;101420.21;1505191;92;21614;-89
2022/02/10 23:05:49;;;;;;;;;;;;;;;4.46;100.00;101414.57;1510024;95;21219;-89
2022/02/10 23:08:17;;;;;;;80.32;25.05;;;;;;;4.43;100.00;101421.64;1513200;94;20773;-89
2022/02/10 23:10:46;;;;;;;77.25;25.90;;;;;;;4.38;100.00;101414.73;1518328;94;21558;-89
2022/02/10 23:13:27;;;;;;;89.67;27.80;;;;;;;4.35;100.00;101413.28;1517892;94;21098;-89
2022/02/10 23:15:52;;;;;;;83.75;27.42;;;;;;;4.36;100.00;101416.28;1518201;94;21130;-89
2022/02/10 23:18:22;;;;;;;81.57;26.70;;;;;;;4.35;100.00;101410.61;1518473;94;21786;-89
2022/02/10 23:20:51;;;;;;;83.40;27.67;;;;;;;4.34;100.00;101411.65;1518148;94;21079;-88
2022/02/10 23:23:20;;;;;;;84.52;29.40;;;;;;;4.31;100.00;101414.20;1518235;94;21145;-89
2022/02/10 23:25:49;;;;;;;87.92;28.45;;;;;;;4.28;100.00;101416.44;1518265;94;22307;-89
2022/02/10 23:28:23;;;;;;;90.80;28.70;;;;;;;4.25;100.00;101420.33;1518401;94;21145;-88
2022/02/10 23:30:51;;;;;;;92.85;29.02;;;;;;;4.25;100.00;101424.33;1414853;98;21657;-89
2022/02/10 23:33:25;;;;;;;92.15;28.90;;;;;;;4.19;100.00;101414.96;1453209;98;21597;-89
2022/02/10 23:38:32;;;;;;;85.28;26.85;;;;;;;4.21;100.00;101432.42;1455997;97;21041;-89
2022/02/10 23:43:39;;;;;;;77.67;25.23;;;;;;;4.21;100.00;101440.42;1479327;96;21705;-88
2022/02/10 23:46:06;;;;;;;81.42;27.07;;;;;;;4.19;100.00;101438.97;1479432;97;21033;-89
2022/02/10 23:48:33;;;;;;;74.20;25.72;;;;;;;4.17;100.00;101437.00;1479319;97;21703;-89
2022/02/10 23:51:00;;;;;;;72.30;26.48;;;;;;;4.15;100.00;101437.21;1479340;97;21290;-88
2022/02/10 23:53:28;;;;;;;80.77;27.77;;;;;;;4.15;100.00;101433.21;1479661;97;21140;-88
2022/02/10 23:55:55;;;;;;;83.52;27.45;;;;;;;4.15;100.00;101439.88;1524642;93;21995;-89
2022/02/10 23:58:37;;;;;;;83.65;28.38;;;;;;;4.13;100.00;101443.24;1528173;92;21664;-89
